createdAt,value
2018-03-23T00:00:30.358Z,0.00
2018-03-23T00:01:30.353Z,0.00
2018-03-23T00:02:30.340Z,0.00
2018-03-23T00:03:30.343Z,0.00
2018-03-23T00:04:30.340Z,0.00
2018-03-23T00:05:51.329Z,0.00
2018-03-23T00:06:30.321Z,0.00
2018-03-23T00:07:30.322Z,0.00
2018-03-23T00:08:30.303Z,0.00
2018-03-23T00:09:30.296Z,0.00
2018-03-23T00:10:30.286Z,0.00
2018-03-23T00:11:51.294Z,0.00
2018-03-23T00:12:30.271Z,0.00
2018-03-23T00:13:30.261Z,0.00
2018-03-23T00:14:30.259Z,0.00
2018-03-23T00:15:30.251Z,0.00
2018-03-23T00:16:30.242Z,0.00
2018-03-23T00:17:51.240Z,0.00
2018-03-23T00:18:30.233Z,0.00
2018-03-23T00:19:30.231Z,0.00
2018-03-23T00:20:30.224Z,0.00
2018-03-23T00:21:30.212Z,0.00
2018-03-23T00:22:30.200Z,0.00
2018-03-23T00:23:51.210Z,0.00
2018-03-23T00:24:30.188Z,0.00
2018-03-23T00:25:30.182Z,0.00
2018-03-23T00:26:30.172Z,0.00
2018-03-23T00:27:30.168Z,0.00
2018-03-23T00:28:30.159Z,0.00
2018-03-23T00:29:51.157Z,0.00
2018-03-23T00:30:30.143Z,0.00
2018-03-23T00:31:30.138Z,0.00
2018-03-23T00:32:30.131Z,0.00
2018-03-23T00:33:30.140Z,0.00
2018-03-23T00:34:30.118Z,0.00
2018-03-23T00:35:51.120Z,0.00
2018-03-23T00:36:30.104Z,0.00
2018-03-23T00:37:30.094Z,0.00
2018-03-23T00:38:30.087Z,0.00
2018-03-23T00:39:30.081Z,0.00
2018-03-23T00:40:30.070Z,0.00
2018-03-23T00:41:51.072Z,0.00
2018-03-23T00:42:30.056Z,0.00
2018-03-23T00:43:30.054Z,0.00
2018-03-23T00:44:30.050Z,0.00
2018-03-23T00:45:30.045Z,0.00
2018-03-23T00:46:30.039Z,0.00
2018-03-23T00:47:51.041Z,0.00
2018-03-23T00:48:30.025Z,0.00
2018-03-23T00:49:30.012Z,0.00
2018-03-23T00:50:30.013Z,0.00
2018-03-23T00:51:29.998Z,0.00
2018-03-23T00:52:29.988Z,0.00
2018-03-23T00:53:50.987Z,0.00
2018-03-23T00:54:29.971Z,0.00
2018-03-23T00:55:29.968Z,0.00
2018-03-23T00:56:29.963Z,0.00
2018-03-23T00:57:29.952Z,0.00
2018-03-23T00:58:29.978Z,0.00
2018-03-23T00:59:50.948Z,0.00
2018-03-23T01:00:29.934Z,0.00
2018-03-23T01:01:29.923Z,0.00
2018-03-23T01:02:29.946Z,0.00
2018-03-23T01:03:29.915Z,0.00
2018-03-23T01:04:29.912Z,0.00
2018-03-23T01:05:50.908Z,0.00
2018-03-23T01:06:29.929Z,0.00
2018-03-23T01:07:29.879Z,0.00
2018-03-23T01:08:29.878Z,0.00
2018-03-23T01:09:29.898Z,0.00
2018-03-23T01:10:29.867Z,0.00
2018-03-23T01:11:50.860Z,0.00
2018-03-23T01:12:29.852Z,0.00
2018-03-23T01:13:29.845Z,0.00
2018-03-23T01:14:29.870Z,0.00
2018-03-23T01:15:29.830Z,0.00
2018-03-23T01:16:29.820Z,0.00
2018-03-23T01:17:50.826Z,0.00
2018-03-23T01:18:29.813Z,0.00
2018-03-23T01:19:29.798Z,0.00
2018-03-23T01:20:29.797Z,0.00
2018-03-23T01:21:29.785Z,0.00
2018-03-23T01:22:29.776Z,0.00
2018-03-23T01:23:50.781Z,0.00
2018-03-23T01:24:29.766Z,0.00
2018-03-23T01:25:29.758Z,0.00
2018-03-23T01:26:29.759Z,0.00
2018-03-23T01:27:29.800Z,0.00
2018-03-23T01:28:29.739Z,0.00
2018-03-23T01:29:50.739Z,0.00
2018-03-23T01:30:29.725Z,0.00
2018-03-23T01:31:29.719Z,0.00
2018-03-23T01:32:29.707Z,0.00
2018-03-23T01:33:29.697Z,0.00
2018-03-23T01:34:29.690Z,0.00
2018-03-23T01:35:50.701Z,0.00
2018-03-23T01:36:29.705Z,0.00
2018-03-23T01:37:29.674Z,0.00
2018-03-23T01:38:29.664Z,0.00
2018-03-23T01:39:29.658Z,0.00
2018-03-23T01:40:29.654Z,0.00
2018-03-23T01:41:50.653Z,0.00
2018-03-23T01:42:29.642Z,0.00
2018-03-23T01:43:29.640Z,0.00
2018-03-23T01:44:29.626Z,0.00
2018-03-23T01:45:29.619Z,0.00
2018-03-23T01:46:29.606Z,0.00
2018-03-23T01:47:50.616Z,0.00
2018-03-23T01:48:29.596Z,0.00
2018-03-23T01:49:29.590Z,0.00
2018-03-23T01:50:29.583Z,0.00
2018-03-23T01:51:29.571Z,0.00
2018-03-23T01:52:29.567Z,0.00
2018-03-23T01:53:50.565Z,0.00
2018-03-23T01:54:29.561Z,0.00
2018-03-23T01:55:29.554Z,0.00
2018-03-23T01:56:29.541Z,0.00
2018-03-23T01:57:29.533Z,0.00
2018-03-23T01:58:29.523Z,0.00
2018-03-23T01:59:50.529Z,0.00
2018-03-23T02:00:29.509Z,0.00
2018-03-23T02:01:29.503Z,0.00
2018-03-23T02:02:29.496Z,0.00
2018-03-23T02:03:29.490Z,0.00
2018-03-23T02:04:29.481Z,0.00
2018-03-23T02:05:50.485Z,0.00
2018-03-23T02:06:29.472Z,0.00
2018-03-23T02:07:29.460Z,0.00
2018-03-23T02:08:29.462Z,0.00
2018-03-23T02:09:29.449Z,0.00
2018-03-23T02:10:29.449Z,0.00
2018-03-23T02:11:50.441Z,0.00
2018-03-23T02:12:29.433Z,0.00
2018-03-23T02:13:29.424Z,0.00
2018-03-23T02:14:29.410Z,0.00
2018-03-23T02:15:29.406Z,0.00
2018-03-23T02:16:29.399Z,0.00
2018-03-23T02:17:50.398Z,0.00
2018-03-23T02:18:29.392Z,0.00
2018-03-23T02:19:29.379Z,0.00
2018-03-23T02:20:29.371Z,0.00
2018-03-23T02:21:29.366Z,0.00
2018-03-23T02:22:29.364Z,0.00
2018-03-23T02:23:50.368Z,0.00
2018-03-23T02:24:29.347Z,0.00
2018-03-23T02:25:29.336Z,0.00
2018-03-23T02:26:29.331Z,0.00
2018-03-23T02:27:29.318Z,0.00
2018-03-23T02:28:29.312Z,0.00
2018-03-23T02:29:50.310Z,0.00
2018-03-23T02:30:29.302Z,0.00
2018-03-23T02:31:29.295Z,0.00
2018-03-23T02:32:29.283Z,0.00
2018-03-23T02:33:29.285Z,0.00
2018-03-23T02:34:29.273Z,0.00
2018-03-23T02:35:50.272Z,0.00
2018-03-23T02:36:29.260Z,0.00
2018-03-23T02:37:29.256Z,0.00
2018-03-23T02:38:29.248Z,0.00
2018-03-23T02:39:29.243Z,0.00
2018-03-23T02:40:29.235Z,0.00
2018-03-23T02:41:50.246Z,0.00
2018-03-23T02:42:29.213Z,0.00
2018-03-23T02:43:29.213Z,0.00
2018-03-23T02:44:29.206Z,0.00
2018-03-23T02:45:29.226Z,0.00
2018-03-23T02:46:29.190Z,0.00
2018-03-23T02:47:50.193Z,0.00
2018-03-23T02:48:29.180Z,0.00
2018-03-23T02:49:29.167Z,0.00
2018-03-23T02:50:29.163Z,0.00
2018-03-23T02:51:29.158Z,0.00
2018-03-23T02:52:29.153Z,0.00
2018-03-23T02:53:50.145Z,0.00
2018-03-23T02:54:29.137Z,0.00
2018-03-23T02:55:29.125Z,0.00
2018-03-23T02:56:29.119Z,0.00
2018-03-23T02:57:29.111Z,0.00
2018-03-23T02:58:29.117Z,0.00
2018-03-23T02:59:50.101Z,0.00
2018-03-23T03:00:29.092Z,0.00
2018-03-23T03:01:29.085Z,0.00
2018-03-23T03:02:29.076Z,0.00
2018-03-23T03:03:29.078Z,0.00
2018-03-23T03:04:29.071Z,0.00
2018-03-23T03:05:50.063Z,0.00
2018-03-23T03:06:29.050Z,0.00
2018-03-23T03:07:29.045Z,0.00
2018-03-23T03:08:29.043Z,0.00
2018-03-23T03:09:29.024Z,0.00
2018-03-23T03:10:29.024Z,0.00
2018-03-23T03:11:50.026Z,0.00
2018-03-23T03:12:29.003Z,0.00
2018-03-23T03:13:29.002Z,0.00
2018-03-23T03:14:28.992Z,0.00
2018-03-23T03:15:28.987Z,0.00
2018-03-23T03:16:28.980Z,0.00
2018-03-23T03:17:49.976Z,0.00
2018-03-23T03:18:28.969Z,0.00
2018-03-23T03:19:28.957Z,0.00
2018-03-23T03:20:28.964Z,0.00
2018-03-23T03:21:28.945Z,0.00
2018-03-23T03:22:28.946Z,0.00
2018-03-23T03:23:49.938Z,0.00
2018-03-23T03:24:28.921Z,0.00
2018-03-23T03:25:28.911Z,0.00
2018-03-23T03:26:28.906Z,0.00
2018-03-23T03:27:28.904Z,0.00
2018-03-23T03:28:28.894Z,0.00
2018-03-23T03:29:49.892Z,0.00
2018-03-23T03:30:28.889Z,0.00
2018-03-23T03:31:28.871Z,0.00
2018-03-23T03:32:28.866Z,0.00
2018-03-23T03:33:28.863Z,0.00
2018-03-23T03:34:28.851Z,0.00
2018-03-23T03:35:49.849Z,0.00
2018-03-23T03:36:28.848Z,0.00
2018-03-23T03:37:28.848Z,0.00
2018-03-23T03:38:28.818Z,0.00
2018-03-23T03:39:28.811Z,0.00
2018-03-23T03:40:28.806Z,0.00
2018-03-23T03:41:49.802Z,0.00
2018-03-23T03:42:28.798Z,0.00
2018-03-23T03:43:28.793Z,0.00
2018-03-23T03:44:28.785Z,0.00
2018-03-23T03:45:28.779Z,0.00
2018-03-23T03:46:28.767Z,0.00
2018-03-23T03:47:49.773Z,0.00
2018-03-23T03:48:28.753Z,0.00
2018-03-23T03:49:28.746Z,0.00
2018-03-23T03:50:28.735Z,0.00
2018-03-23T03:51:28.733Z,0.00
2018-03-23T03:52:28.724Z,0.00
2018-03-23T03:53:49.720Z,0.00
2018-03-23T03:54:28.708Z,0.00
2018-03-23T03:55:28.703Z,0.00
2018-03-23T03:56:28.694Z,0.00
2018-03-23T03:57:28.692Z,0.00
2018-03-23T03:58:28.697Z,0.00
2018-03-23T03:59:49.685Z,0.00
2018-03-23T04:00:28.732Z,0.00
2018-03-23T04:01:28.693Z,0.00
2018-03-23T04:02:28.684Z,0.00
2018-03-23T04:03:28.649Z,0.00
2018-03-23T04:04:28.642Z,0.00
2018-03-23T04:05:49.641Z,0.00
2018-03-23T04:06:28.623Z,0.00
2018-03-23T04:07:28.624Z,0.00
2018-03-23T04:08:28.642Z,0.00
2018-03-23T04:09:28.609Z,0.00
2018-03-23T04:10:28.597Z,0.00
2018-03-23T04:11:49.597Z,0.00
2018-03-23T04:12:28.584Z,0.00
2018-03-23T04:13:28.582Z,0.00
2018-03-23T04:14:28.573Z,0.00
2018-03-23T04:15:28.566Z,0.00
2018-03-23T04:16:28.559Z,0.00
2018-03-23T04:17:49.556Z,0.00
2018-03-23T04:18:28.539Z,0.00
2018-03-23T04:19:28.530Z,0.00
2018-03-23T04:20:28.528Z,0.00
2018-03-23T04:21:28.517Z,0.00
2018-03-23T04:22:28.509Z,0.00
2018-03-23T04:23:49.508Z,0.00
2018-03-23T04:24:28.507Z,0.00
2018-03-23T04:25:28.486Z,0.00
2018-03-23T04:26:28.489Z,0.00
2018-03-23T04:27:28.489Z,0.00
2018-03-23T04:28:28.477Z,0.00
2018-03-23T04:29:49.472Z,0.00
2018-03-23T04:30:28.461Z,0.00
2018-03-23T04:31:28.445Z,0.00
2018-03-23T04:32:28.445Z,0.00
2018-03-23T04:33:28.489Z,0.00
2018-03-23T04:34:28.428Z,0.00
2018-03-23T04:35:49.433Z,0.00
2018-03-23T04:36:28.417Z,0.00
2018-03-23T04:37:28.408Z,0.00
2018-03-23T04:38:28.398Z,0.00
2018-03-23T04:39:28.399Z,0.00
2018-03-23T04:40:28.398Z,0.00
2018-03-23T04:41:49.385Z,0.00
2018-03-23T04:42:28.384Z,0.00
2018-03-23T04:43:28.369Z,0.00
2018-03-23T04:44:28.365Z,0.00
2018-03-23T04:45:28.349Z,0.00
2018-03-23T04:46:28.342Z,0.00
2018-03-23T04:47:49.384Z,0.00
2018-03-23T04:48:28.343Z,0.00
2018-03-23T04:49:28.326Z,0.00
2018-03-23T04:50:28.319Z,0.00
2018-03-23T04:51:28.314Z,0.00
2018-03-23T04:52:28.302Z,0.00
2018-03-23T04:53:49.305Z,0.00
2018-03-23T04:54:28.289Z,0.00
2018-03-23T04:55:28.287Z,0.00
2018-03-23T04:56:28.281Z,0.00
2018-03-23T04:57:28.267Z,0.00
2018-03-23T04:58:28.269Z,0.00
2018-03-23T04:59:49.258Z,0.00
2018-03-23T05:00:28.244Z,0.00
2018-03-23T05:01:28.236Z,0.00
2018-03-23T05:02:28.223Z,0.00
2018-03-23T05:03:28.221Z,0.00
2018-03-23T05:04:28.208Z,0.00
2018-03-23T05:05:49.205Z,0.00
2018-03-23T05:06:28.202Z,0.00
2018-03-23T05:07:28.189Z,0.00
2018-03-23T05:08:28.184Z,0.00
2018-03-23T05:09:28.170Z,0.00
2018-03-23T05:10:28.167Z,0.00
2018-03-23T05:11:49.170Z,0.00
2018-03-23T05:12:28.149Z,0.00
2018-03-23T05:13:28.137Z,0.00
2018-03-23T05:14:28.128Z,0.00
2018-03-23T05:15:28.123Z,0.00
2018-03-23T05:16:28.131Z,0.00
2018-03-23T05:17:49.114Z,0.00
2018-03-23T05:18:28.105Z,0.00
2018-03-23T05:19:28.096Z,0.00
2018-03-23T05:20:28.087Z,0.00
2018-03-23T05:21:28.074Z,0.00
2018-03-23T05:22:28.066Z,0.00
2018-03-23T05:23:49.064Z,0.00
2018-03-23T05:24:28.050Z,0.00
2018-03-23T05:25:28.042Z,0.00
2018-03-23T05:26:28.033Z,0.00
2018-03-23T05:27:28.025Z,0.00
2018-03-23T05:28:28.025Z,0.00
2018-03-23T05:29:49.012Z,0.00
2018-03-23T05:30:28.003Z,0.00
2018-03-23T05:31:27.997Z,0.00
2018-03-23T05:32:27.989Z,0.00
2018-03-23T05:33:27.978Z,0.00
2018-03-23T05:34:27.977Z,0.00
2018-03-23T05:35:48.969Z,0.00
2018-03-23T05:36:27.949Z,0.00
2018-03-23T05:37:27.947Z,0.00
2018-03-23T05:38:27.934Z,0.00
2018-03-23T05:39:27.962Z,0.00
2018-03-23T05:40:27.926Z,0.00
2018-03-23T05:41:48.914Z,0.00
2018-03-23T05:42:27.906Z,0.00
2018-03-23T05:43:27.902Z,0.00
2018-03-23T05:44:27.899Z,0.00
2018-03-23T05:45:27.894Z,0.00
2018-03-23T05:46:27.871Z,0.00
2018-03-23T05:47:48.875Z,0.00
2018-03-23T05:48:27.853Z,0.00
2018-03-23T05:49:27.866Z,0.00
2018-03-23T05:50:27.840Z,0.00
2018-03-23T05:51:27.830Z,0.00
2018-03-23T05:52:27.829Z,0.00
2018-03-23T05:53:48.821Z,0.00
2018-03-23T05:54:27.805Z,0.00
2018-03-23T05:55:27.805Z,0.00
2018-03-23T05:56:27.794Z,0.00
2018-03-23T05:57:27.792Z,0.00
2018-03-23T05:58:27.779Z,0.00
2018-03-23T05:59:48.781Z,0.00
2018-03-23T06:00:27.757Z,0.00
2018-03-23T06:01:27.747Z,0.00
2018-03-23T06:02:27.742Z,0.00
2018-03-23T06:03:27.738Z,0.00
2018-03-23T06:04:27.729Z,0.00
2018-03-23T06:05:48.723Z,0.00
2018-03-23T06:06:27.712Z,0.00
2018-03-23T06:07:27.705Z,0.00
2018-03-23T06:08:27.701Z,0.00
2018-03-23T06:09:27.688Z,0.00
2018-03-23T06:10:27.685Z,0.00
2018-03-23T06:11:48.681Z,0.00
2018-03-23T06:12:27.657Z,0.00
2018-03-23T06:13:27.650Z,0.00
2018-03-23T06:14:27.652Z,0.00
2018-03-23T06:15:27.643Z,0.00
2018-03-23T06:16:27.636Z,0.00
2018-03-23T06:17:48.630Z,0.00
2018-03-23T06:18:27.615Z,0.00
2018-03-23T06:19:27.607Z,0.00
2018-03-23T06:20:27.602Z,0.00
2018-03-23T06:21:27.603Z,0.00
2018-03-23T06:22:27.583Z,0.00
2018-03-23T06:23:48.592Z,0.00
2018-03-23T06:24:27.564Z,0.00
2018-03-23T06:25:27.555Z,0.00
2018-03-23T06:26:27.551Z,0.00
2018-03-23T06:27:27.536Z,0.00
2018-03-23T06:28:27.536Z,0.00
2018-03-23T06:29:48.524Z,0.00
2018-03-23T06:30:27.515Z,0.00
2018-03-23T06:31:27.514Z,0.00
2018-03-23T06:32:27.497Z,0.00
2018-03-23T06:33:27.493Z,0.00
2018-03-23T06:34:27.481Z,0.00
2018-03-23T06:35:48.487Z,0.00
2018-03-23T06:36:27.466Z,0.00
2018-03-23T06:37:27.455Z,0.00
2018-03-23T06:38:27.448Z,0.00
2018-03-23T06:39:27.441Z,0.00
2018-03-23T06:40:27.460Z,0.00
2018-03-23T06:41:48.428Z,0.00
2018-03-23T06:42:27.419Z,0.00
2018-03-23T06:43:27.426Z,0.00
2018-03-23T06:44:27.429Z,0.00
2018-03-23T06:45:27.391Z,0.00
2018-03-23T06:46:27.387Z,0.00
2018-03-23T06:47:48.392Z,0.00
2018-03-23T06:48:27.395Z,0.00
2018-03-23T06:49:27.359Z,0.00
2018-03-23T06:50:27.355Z,0.00
2018-03-23T06:51:27.343Z,0.00
2018-03-23T06:52:27.336Z,0.00
2018-03-23T06:53:48.328Z,0.00
2018-03-23T06:54:27.362Z,0.00
2018-03-23T06:55:27.322Z,0.00
2018-03-23T06:56:27.303Z,0.00
2018-03-23T06:57:27.304Z,0.00
2018-03-23T06:58:27.290Z,0.00
2018-03-23T06:59:48.289Z,0.00
2018-03-23T07:00:27.270Z,0.00
2018-03-23T07:01:27.258Z,0.00
2018-03-23T07:02:27.250Z,0.00
2018-03-23T07:03:27.245Z,0.00
2018-03-23T07:04:27.241Z,0.00
2018-03-23T07:05:48.239Z,0.00
2018-03-23T07:06:27.223Z,0.00
2018-03-23T07:07:27.215Z,0.00
2018-03-23T07:08:27.205Z,0.00
2018-03-23T07:09:27.195Z,0.00
2018-03-23T07:10:27.187Z,0.00
2018-03-23T07:11:48.197Z,0.00
2018-03-23T07:12:27.169Z,0.00
2018-03-23T07:13:27.160Z,0.00
2018-03-23T07:14:27.152Z,0.00
2018-03-23T07:15:27.146Z,0.00
2018-03-23T07:16:27.143Z,0.00
2018-03-23T07:17:48.135Z,0.00
2018-03-23T07:18:27.128Z,0.00
2018-03-23T07:19:27.115Z,0.00
2018-03-23T07:20:27.116Z,0.00
2018-03-23T07:21:27.096Z,0.00
2018-03-23T07:22:27.092Z,0.00
2018-03-23T07:23:48.087Z,5.63
2018-03-23T07:24:27.070Z,5.63
2018-03-23T07:25:27.063Z,5.63
2018-03-23T07:26:27.095Z,5.63
2018-03-23T07:27:27.136Z,5.63
2018-03-23T07:28:27.080Z,5.63
2018-03-23T07:29:48.084Z,5.63
2018-03-23T07:30:27.034Z,5.63
2018-03-23T07:31:27.051Z,5.63
2018-03-23T07:32:27.044Z,5.63
2018-03-23T07:33:27.029Z,5.63
2018-03-23T07:34:26.996Z,5.63
2018-03-23T07:35:47.992Z,5.63
2018-03-23T07:36:26.974Z,5.63
2018-03-23T07:37:26.974Z,5.63
2018-03-23T07:38:26.958Z,5.63
2018-03-23T07:39:26.951Z,5.63
2018-03-23T07:40:26.950Z,11.25
2018-03-23T07:41:47.938Z,11.25
2018-03-23T07:42:26.929Z,11.25
2018-03-23T07:43:26.921Z,11.25
2018-03-23T07:44:26.919Z,11.25
2018-03-23T07:45:26.919Z,11.25
2018-03-23T07:46:26.894Z,11.25
2018-03-23T07:47:47.901Z,11.25
2018-03-23T07:48:26.880Z,11.25
2018-03-23T07:49:26.867Z,11.25
2018-03-23T07:50:26.858Z,11.25
2018-03-23T07:51:26.848Z,11.25
2018-03-23T07:52:26.850Z,11.25
2018-03-23T07:53:47.844Z,11.25
2018-03-23T07:54:26.828Z,11.25
2018-03-23T07:55:26.822Z,11.25
2018-03-23T07:56:26.819Z,11.25
2018-03-23T07:57:26.804Z,11.25
2018-03-23T07:58:26.800Z,11.25
2018-03-23T07:59:47.798Z,11.25
2018-03-23T08:00:26.782Z,11.25
2018-03-23T08:01:26.770Z,11.25
2018-03-23T08:02:26.760Z,11.25
2018-03-23T08:03:26.752Z,11.25
2018-03-23T08:04:26.755Z,11.25
2018-03-23T08:05:47.745Z,11.25
2018-03-23T08:06:26.736Z,11.25
2018-03-23T08:07:26.730Z,11.25
2018-03-23T08:08:26.717Z,16.88
2018-03-23T08:09:26.707Z,16.88
2018-03-23T08:10:26.702Z,16.88
2018-03-23T08:11:47.692Z,16.88
2018-03-23T08:12:26.679Z,16.88
2018-03-23T08:13:26.675Z,16.88
2018-03-23T08:14:26.666Z,16.88
2018-03-23T08:15:26.656Z,16.88
2018-03-23T08:16:26.654Z,16.88
2018-03-23T08:17:47.647Z,16.88
2018-03-23T08:18:26.638Z,16.88
2018-03-23T08:19:26.626Z,16.88
2018-03-23T08:20:26.624Z,16.88
2018-03-23T08:21:26.609Z,16.88
2018-03-23T08:22:26.602Z,16.88
2018-03-23T08:23:47.604Z,16.88
2018-03-23T08:24:26.584Z,16.88
2018-03-23T08:25:26.578Z,16.88
2018-03-23T08:26:26.564Z,16.88
2018-03-23T08:27:26.563Z,22.50
2018-03-23T08:28:26.563Z,22.50
2018-03-23T08:29:47.547Z,22.50
2018-03-23T08:30:26.541Z,22.50
2018-03-23T08:31:26.532Z,22.50
2018-03-23T08:32:26.525Z,22.50
2018-03-23T08:33:26.519Z,22.50
2018-03-23T08:34:26.510Z,22.50
2018-03-23T08:35:47.509Z,22.50
2018-03-23T08:36:26.537Z,22.50
2018-03-23T08:37:26.477Z,22.50
2018-03-23T08:38:26.471Z,22.50
2018-03-23T08:39:26.461Z,22.50
2018-03-23T08:40:26.463Z,22.50
2018-03-23T08:41:47.529Z,16.88
2018-03-23T08:42:26.443Z,16.88
2018-03-23T08:43:26.434Z,16.88
2018-03-23T08:44:26.442Z,16.88
2018-03-23T08:45:26.420Z,16.88
2018-03-23T08:46:26.420Z,16.88
2018-03-23T08:47:47.403Z,16.88
2018-03-23T08:48:26.396Z,16.88
2018-03-23T08:49:26.389Z,16.88
2018-03-23T08:50:26.378Z,16.88
2018-03-23T08:51:26.366Z,16.88
2018-03-23T08:52:26.360Z,16.88
2018-03-23T08:53:47.357Z,16.88
2018-03-23T08:54:26.349Z,16.88
2018-03-23T08:55:26.335Z,16.88
2018-03-23T08:56:26.333Z,16.88
2018-03-23T08:57:26.318Z,16.88
2018-03-23T08:58:26.307Z,16.88
2018-03-23T08:59:47.311Z,16.88
2018-03-23T09:00:26.298Z,16.88
2018-03-23T09:01:26.284Z,16.88
2018-03-23T09:02:26.277Z,16.88
2018-03-23T09:03:26.277Z,16.88
2018-03-23T09:04:26.266Z,16.88
2018-03-23T09:05:47.258Z,16.88
2018-03-23T09:06:26.247Z,16.88
2018-03-23T09:07:26.241Z,16.88
2018-03-23T09:08:26.241Z,16.88
2018-03-23T09:09:26.224Z,16.88
2018-03-23T09:10:26.223Z,11.25
2018-03-23T09:11:47.217Z,11.25
2018-03-23T09:12:26.196Z,16.88
2018-03-23T09:13:26.191Z,16.88
2018-03-23T09:14:26.183Z,16.88
2018-03-23T09:15:26.173Z,16.88
2018-03-23T09:16:26.163Z,16.88
2018-03-23T09:17:47.161Z,16.88
2018-03-23T09:18:26.148Z,16.88
2018-03-23T09:19:26.147Z,16.88
2018-03-23T09:20:26.136Z,16.88
2018-03-23T09:21:26.130Z,16.88
2018-03-23T09:22:26.122Z,16.88
2018-03-23T09:23:47.118Z,22.50
2018-03-23T09:24:26.102Z,22.50
2018-03-23T09:25:26.091Z,22.50
2018-03-23T09:26:26.085Z,22.50
2018-03-23T09:27:26.076Z,22.50
2018-03-23T09:28:26.073Z,22.50
2018-03-23T09:29:47.069Z,22.50
2018-03-23T09:30:26.052Z,22.50
2018-03-23T09:31:26.043Z,22.50
2018-03-23T09:32:26.037Z,22.50
2018-03-23T09:33:26.032Z,16.88
2018-03-23T09:34:26.025Z,16.88
2018-03-23T09:35:47.035Z,16.88
2018-03-23T09:36:26.007Z,16.88
2018-03-23T09:37:25.994Z,16.88
2018-03-23T09:38:25.984Z,16.88
2018-03-23T09:39:25.979Z,16.88
2018-03-23T09:40:25.970Z,16.88
2018-03-23T09:41:46.968Z,16.88
2018-03-23T09:42:25.959Z,16.88
2018-03-23T09:43:25.950Z,22.50
2018-03-23T09:44:25.939Z,22.50
2018-03-23T09:45:25.937Z,22.50
2018-03-23T09:46:25.923Z,22.50
2018-03-23T09:47:46.926Z,22.50
2018-03-23T09:48:25.907Z,22.50
2018-03-23T09:49:25.898Z,22.50
2018-03-23T09:50:25.913Z,22.50
2018-03-23T09:51:25.881Z,22.50
2018-03-23T09:52:25.875Z,22.50
2018-03-23T09:53:46.869Z,16.88
2018-03-23T09:54:25.861Z,16.88
2018-03-23T09:55:25.865Z,16.88
2018-03-23T09:56:25.849Z,11.25
2018-03-23T09:57:25.842Z,11.25
2018-03-23T09:58:25.827Z,11.25
2018-03-23T09:59:46.831Z,11.25
2018-03-23T10:00:25.829Z,11.25
2018-03-23T10:01:25.806Z,16.88
2018-03-23T10:02:25.795Z,16.88
2018-03-23T10:03:25.787Z,16.88
2018-03-23T10:04:25.776Z,16.88
2018-03-23T10:05:46.774Z,16.88
2018-03-23T10:06:25.764Z,16.88
2018-03-23T10:07:25.761Z,22.50
2018-03-23T10:08:25.760Z,22.50
2018-03-23T10:09:25.746Z,22.50
2018-03-23T10:10:25.730Z,22.50
2018-03-23T10:11:46.736Z,22.50
2018-03-23T10:12:25.712Z,22.50
2018-03-23T10:13:25.703Z,16.88
2018-03-23T10:14:25.696Z,16.88
2018-03-23T10:15:25.738Z,16.88
2018-03-23T10:16:25.682Z,16.88
2018-03-23T10:17:46.951Z,16.88
2018-03-23T10:18:25.671Z,16.88
2018-03-23T10:19:25.664Z,16.88
2018-03-23T10:20:25.649Z,16.88
2018-03-23T10:21:25.644Z,16.88
2018-03-23T10:22:25.634Z,16.88
2018-03-23T10:23:46.634Z,22.50
2018-03-23T10:24:25.657Z,22.50
2018-03-23T10:25:25.608Z,22.50
2018-03-23T10:26:25.599Z,22.50
2018-03-23T10:27:25.594Z,16.88
2018-03-23T10:28:25.582Z,16.88
2018-03-23T10:29:46.581Z,16.88
2018-03-23T10:30:25.570Z,16.88
2018-03-23T10:31:25.567Z,16.88
2018-03-23T10:32:25.555Z,16.88
2018-03-23T10:33:25.546Z,16.88
2018-03-23T10:34:25.534Z,22.50
2018-03-23T10:35:46.539Z,22.50
2018-03-23T10:36:25.535Z,22.50
2018-03-23T10:37:25.513Z,22.50
2018-03-23T10:38:25.508Z,22.50
2018-03-23T10:39:25.498Z,22.50
2018-03-23T10:40:25.485Z,22.50
2018-03-23T10:41:46.480Z,22.50
2018-03-23T10:42:25.472Z,22.50
2018-03-23T10:43:25.474Z,22.50
2018-03-23T10:44:25.463Z,28.13
2018-03-23T10:45:25.461Z,33.75
2018-03-23T10:46:25.446Z,39.38
2018-03-23T10:47:46.438Z,39.38
2018-03-23T10:48:25.423Z,45.00
2018-03-23T10:49:25.445Z,50.63
2018-03-23T10:50:25.414Z,61.88
2018-03-23T10:51:25.399Z,78.75
2018-03-23T10:52:25.393Z,84.38
2018-03-23T10:53:46.386Z,84.38
2018-03-23T10:54:25.397Z,78.75
2018-03-23T10:55:25.371Z,73.13
2018-03-23T10:56:25.363Z,78.75
2018-03-23T10:57:25.361Z,73.13
2018-03-23T10:58:25.342Z,73.13
2018-03-23T10:59:46.350Z,73.13
2018-03-23T11:00:25.332Z,73.13
2018-03-23T11:01:25.322Z,73.13
2018-03-23T11:02:25.309Z,73.13
2018-03-23T11:03:25.306Z,73.13
2018-03-23T11:04:25.296Z,67.50
2018-03-23T11:05:46.292Z,61.88
2018-03-23T11:06:25.284Z,61.88
2018-03-23T11:07:25.278Z,56.25
2018-03-23T11:08:25.277Z,56.25
2018-03-23T11:09:25.305Z,50.63
2018-03-23T11:10:25.247Z,45.00
2018-03-23T11:11:46.282Z,45.00
2018-03-23T11:12:25.269Z,45.00
2018-03-23T11:13:25.252Z,39.38
2018-03-23T11:14:25.313Z,39.38
2018-03-23T11:15:25.210Z,39.38
2018-03-23T11:16:25.239Z,45.00
2018-03-23T11:17:46.234Z,45.00
2018-03-23T11:18:25.192Z,45.00
2018-03-23T11:19:25.179Z,45.00
2018-03-23T11:20:25.172Z,45.00
2018-03-23T11:21:25.163Z,50.63
2018-03-23T11:22:25.168Z,45.00
2018-03-23T11:23:46.164Z,45.00
2018-03-23T11:24:25.154Z,45.00
2018-03-23T11:25:25.164Z,45.00
2018-03-23T11:26:25.123Z,45.00
2018-03-23T11:27:25.116Z,45.00
2018-03-23T11:28:25.109Z,45.00
2018-03-23T11:29:46.110Z,45.00
2018-03-23T11:30:25.094Z,45.00
2018-03-23T11:31:25.095Z,45.00
2018-03-23T11:32:25.082Z,50.63
2018-03-23T11:33:25.082Z,56.25
2018-03-23T11:34:25.065Z,56.25
2018-03-23T11:35:46.067Z,61.88
2018-03-23T11:36:25.057Z,61.88
2018-03-23T11:37:25.042Z,67.50
2018-03-23T11:38:25.031Z,67.50
2018-03-23T11:39:25.022Z,73.13
2018-03-23T11:40:25.015Z,73.13
2018-03-23T11:41:46.030Z,73.13
2018-03-23T11:42:24.999Z,73.13
2018-03-23T11:43:24.991Z,73.13
2018-03-23T11:44:25.004Z,73.13
2018-03-23T11:45:24.983Z,73.13
2018-03-23T11:46:24.973Z,67.50
2018-03-23T11:47:45.974Z,73.13
2018-03-23T11:48:24.964Z,73.13
2018-03-23T11:49:24.948Z,67.50
2018-03-23T11:50:24.944Z,67.50
2018-03-23T11:51:24.931Z,73.13
2018-03-23T11:52:24.928Z,73.13
2018-03-23T11:53:45.919Z,67.50
2018-03-23T11:54:24.918Z,67.50
2018-03-23T11:55:24.901Z,67.50
2018-03-23T11:56:24.940Z,67.50
2018-03-23T11:57:24.888Z,67.50
2018-03-23T11:58:24.880Z,61.88
2018-03-23T11:59:45.879Z,61.88
2018-03-23T12:00:24.868Z,56.25
2018-03-23T12:01:24.860Z,50.63
2018-03-23T12:02:24.849Z,50.63
2018-03-23T12:03:24.847Z,50.63
2018-03-23T12:04:24.831Z,50.63
2018-03-23T12:05:45.844Z,45.00
2018-03-23T12:06:24.823Z,45.00
2018-03-23T12:07:24.860Z,45.00
2018-03-23T12:08:24.801Z,50.63
2018-03-23T12:09:24.791Z,50.63
2018-03-23T12:10:24.791Z,50.63
2018-03-23T12:11:45.792Z,50.63
2018-03-23T12:12:24.780Z,50.63
2018-03-23T12:13:24.769Z,50.63
2018-03-23T12:14:24.774Z,50.63
2018-03-23T12:15:24.753Z,50.63
2018-03-23T12:16:24.745Z,50.63
2018-03-23T12:17:45.742Z,50.63
2018-03-23T12:18:24.726Z,50.63
2018-03-23T12:19:24.719Z,50.63
2018-03-23T12:20:24.707Z,50.63
2018-03-23T12:21:24.704Z,50.63
2018-03-23T12:22:24.693Z,50.63
2018-03-23T12:23:45.694Z,50.63
2018-03-23T12:24:24.682Z,50.63
2018-03-23T12:25:24.677Z,56.25
2018-03-23T12:26:24.676Z,56.25
2018-03-23T12:27:24.666Z,56.25
2018-03-23T12:28:24.657Z,56.25
2018-03-23T12:29:45.648Z,61.88
2018-03-23T12:30:24.631Z,73.13
2018-03-23T12:31:24.626Z,61.88
2018-03-23T12:32:24.616Z,61.88
2018-03-23T12:33:24.609Z,61.88
2018-03-23T12:34:24.602Z,61.88
2018-03-23T12:35:45.603Z,61.88
2018-03-23T12:36:24.586Z,61.88
2018-03-23T12:37:24.583Z,61.88
2018-03-23T12:38:24.581Z,61.88
2018-03-23T12:39:24.570Z,61.88
2018-03-23T12:40:24.561Z,56.25
2018-03-23T12:41:45.558Z,56.25
2018-03-23T12:42:24.543Z,56.25
2018-03-23T12:43:24.544Z,56.25
2018-03-23T12:44:24.531Z,50.63
2018-03-23T12:45:24.520Z,50.63
2018-03-23T12:46:24.515Z,50.63
2018-03-23T12:47:45.512Z,50.63
2018-03-23T12:48:24.503Z,50.63
2018-03-23T12:49:24.504Z,45.00
2018-03-23T12:50:24.498Z,45.00
2018-03-23T12:51:24.482Z,45.00
2018-03-23T12:52:24.479Z,45.00
2018-03-23T12:53:45.465Z,45.00
2018-03-23T12:54:24.462Z,45.00
2018-03-23T12:55:24.461Z,45.00
2018-03-23T12:56:24.440Z,45.00
2018-03-23T12:57:24.429Z,45.00
2018-03-23T12:58:24.430Z,45.00
2018-03-23T12:59:45.421Z,39.38
2018-03-23T13:00:24.416Z,39.38
2018-03-23T13:01:24.400Z,39.38
2018-03-23T13:02:24.396Z,39.38
2018-03-23T13:03:24.398Z,39.38
2018-03-23T13:04:24.385Z,39.38
2018-03-23T13:05:45.387Z,39.38
2018-03-23T13:06:24.361Z,39.38
2018-03-23T13:07:24.359Z,39.38